createdAt,value
2018-11-23T00:00:31.174Z,56.90
2018-11-23T00:03:00.235Z,50.43
2018-11-23T00:05:28.809Z,52.67
2018-11-23T00:07:57.911Z,55.97
2018-11-23T00:10:27.744Z,62.53
2018-11-23T00:12:56.025Z,50.80
2018-11-23T00:15:25.681Z,54.03
2018-11-23T00:17:53.962Z,50.07
2018-11-23T00:20:24.036Z,57.43
2018-11-23T00:22:52.489Z,57.90
2018-11-23T00:25:22.122Z,55.53
2018-11-23T00:27:50.769Z,56.10
2018-11-23T00:30:22.949Z,65.90
2018-11-23T00:32:51.783Z,60.80
2018-11-23T00:35:26.859Z,69.50
2018-11-23T00:37:56.589Z,56.30
2018-11-23T00:40:28.322Z,55.03
2018-11-23T00:42:57.180Z,63.67
2018-11-23T00:45:25.533Z,57.13
2018-11-23T00:47:54.701Z,54.47
2018-11-23T00:50:23.998Z,60.20
2018-11-23T00:52:53.362Z,55.50
2018-11-23T00:55:22.729Z,61.10
2018-11-23T00:57:51.062Z,63.17
2018-11-23T01:00:26.554Z,70.23
2018-11-23T01:02:55.428Z,61.90
2018-11-23T01:05:23.911Z,66.53
2018-11-23T01:07:52.271Z,65.27
2018-11-23T01:10:22.440Z,61.80
2018-11-23T01:12:51.860Z,64.00
2018-11-23T01:15:20.166Z,61.03
2018-11-23T01:17:48.491Z,57.57
2018-11-23T01:20:18.385Z,61.63
2018-11-23T01:22:47.092Z,58.07
2018-11-23T01:25:16.694Z,69.37
2018-11-23T01:27:45.987Z,63.97
2018-11-23T01:30:16.924Z,55.10
2018-11-23T01:32:45.505Z,62.37
2018-11-23T01:35:14.081Z,62.73
2018-11-23T01:37:42.666Z,55.07
2018-11-23T01:40:13.443Z,65.97
2018-11-23T01:42:41.889Z,61.67
2018-11-23T01:45:10.836Z,66.57
2018-11-23T01:47:39.280Z,60.47
2018-11-23T01:50:14.206Z,58.53
2018-11-23T01:52:43.186Z,62.10
2018-11-23T01:55:12.609Z,74.03
2018-11-23T01:57:41.524Z,69.27
2018-11-23T02:00:13.617Z,59.53
2018-11-23T02:02:42.279Z,62.13
2018-11-23T02:05:11.052Z,63.87
2018-11-23T02:07:39.896Z,66.03
2018-11-23T02:10:09.406Z,78.47
2018-11-23T02:12:37.692Z,69.33
2018-11-23T02:15:08.368Z,77.77
2018-11-23T02:17:36.792Z,75.90
2018-11-23T02:20:07.044Z,77.00
2018-11-23T02:22:35.405Z,74.90
2018-11-23T02:25:03.745Z,76.33
2018-11-23T02:27:32.167Z,78.70
2018-11-23T02:30:00.442Z,73.10
2018-11-23T02:32:28.819Z,66.87
2018-11-23T02:34:57.433Z,71.03
2018-11-23T02:37:25.740Z,80.50
2018-11-23T02:39:54.070Z,69.07
2018-11-23T02:42:22.536Z,72.57
2018-11-23T02:44:50.925Z,71.57
2018-11-23T02:47:19.425Z,73.70
2018-11-23T02:49:47.717Z,86.30
2018-11-23T02:52:16.114Z,86.00
2018-11-23T02:54:44.598Z,79.40
2018-11-23T02:57:12.960Z,84.00
2018-11-23T02:59:41.231Z,88.73
2018-11-23T03:02:09.734Z,83.60
2018-11-23T03:04:38.148Z,84.47
2018-11-23T03:07:06.484Z,86.97
2018-11-23T03:09:34.917Z,89.77
2018-11-23T03:12:03.215Z,91.83
2018-11-23T03:14:31.626Z,90.20
2018-11-23T03:17:00.084Z,90.37
2018-11-23T03:19:28.368Z,88.67
2018-11-23T03:21:56.737Z,99.37
2018-11-23T03:24:25.183Z,100.20
2018-11-23T03:26:53.479Z,92.03
2018-11-23T03:29:21.776Z,96.43
2018-11-23T03:31:50.273Z,105.83
2018-11-23T03:34:18.988Z,103.40
2018-11-23T03:36:47.763Z,103.20
2018-11-23T03:39:16.226Z,99.27
2018-11-23T03:41:44.584Z,105.93
2018-11-23T03:44:12.930Z,110.53
2018-11-23T03:46:41.351Z,90.83
2018-11-23T03:49:09.946Z,107.90
2018-11-23T03:51:38.260Z,96.43
2018-11-23T03:54:06.615Z,107.17
2018-11-23T03:56:35.004Z,110.17
2018-11-23T03:59:03.356Z,101.00
2018-11-23T04:01:32.057Z,117.00
2018-11-23T04:04:00.396Z,101.93
2018-11-23T04:06:28.991Z,107.40
2018-11-23T04:08:57.304Z,110.20
2018-11-23T04:11:25.648Z,103.17
2018-11-23T04:13:54.100Z,107.57
2018-11-23T04:16:22.418Z,111.17
2018-11-23T04:18:50.825Z,109.87
2018-11-23T04:21:19.963Z,107.63
2018-11-23T04:23:48.591Z,107.67
2018-11-23T04:26:24.445Z,107.13
2018-11-23T04:28:45.888Z,111.03
2018-11-23T04:31:14.241Z,117.57
2018-11-23T04:33:42.645Z,113.23
2018-11-23T04:36:11.019Z,121.10
2018-11-23T04:38:39.354Z,111.60
2018-11-23T04:41:07.768Z,115.00
2018-11-23T04:43:36.291Z,114.73
2018-11-23T04:46:05.684Z,118.10
2018-11-23T04:48:34.388Z,117.70
2018-11-23T04:51:04.419Z,117.80
2018-11-23T04:53:33.057Z,125.73
2018-11-23T04:56:01.776Z,116.47
2018-11-23T04:58:30.290Z,127.10
2018-11-23T05:03:55.087Z,104.53
2018-11-23T05:06:24.959Z,123.13
2018-11-23T05:08:53.991Z,127.00
2018-11-23T05:11:23.141Z,123.97
2018-11-23T05:13:51.684Z,126.83
2018-11-23T05:16:22.861Z,140.47
2018-11-23T05:18:52.963Z,122.37
2018-11-23T05:21:21.679Z,129.47
2018-11-23T05:23:50.556Z,142.67
2018-11-23T05:26:20.267Z,133.53
2018-11-23T05:28:50.012Z,127.40
2018-11-23T05:31:19.200Z,138.27
2018-11-23T05:33:49.910Z,122.50
2018-11-23T05:36:18.685Z,135.27
2018-11-23T05:38:48.617Z,150.13
2018-11-23T05:41:17.474Z,136.27
2018-11-23T05:43:46.201Z,132.87
2018-11-23T05:46:15.503Z,125.60
2018-11-23T05:48:45.397Z,135.67
2018-11-23T05:51:14.712Z,126.57
2018-11-23T05:53:44.726Z,133.87
2018-11-23T05:56:15.607Z,137.70
2018-11-23T05:58:44.962Z,123.50
2018-11-23T06:01:14.304Z,128.20
2018-11-23T06:03:43.019Z,136.70
2018-11-23T06:06:12.131Z,127.43
2018-11-23T06:08:40.635Z,115.67
2018-11-23T06:11:09.848Z,139.13
2018-11-23T06:13:38.569Z,143.67
2018-11-23T06:16:07.523Z,138.17
2018-11-23T06:18:36.239Z,131.13
2018-11-23T06:21:05.720Z,129.70
2018-11-23T06:23:34.618Z,138.93
2018-11-23T06:26:14.564Z,133.23
2018-11-23T06:28:43.961Z,138.97
2018-11-23T06:31:14.322Z,125.20
2018-11-23T06:33:44.697Z,118.03
2018-11-23T06:36:13.614Z,129.67
2018-11-23T06:38:42.906Z,122.70
2018-11-23T06:41:11.811Z,137.37
2018-11-23T06:43:40.892Z,120.53
2018-11-23T06:46:11.105Z,135.73
2018-11-23T06:48:39.794Z,136.27
2018-11-23T06:51:09.383Z,130.33
2018-11-23T06:53:38.259Z,126.43
2018-11-23T06:56:08.157Z,139.33
2018-11-23T06:58:37.772Z,141.50
2018-11-23T07:01:07.239Z,121.97
2018-11-23T07:03:36.252Z,133.10
2018-11-23T07:06:06.405Z,127.10
2018-11-23T07:08:38.443Z,124.67
2018-11-23T07:11:08.510Z,121.80
2018-11-23T07:13:37.392Z,124.00
2018-11-23T07:16:08.998Z,131.73
2018-11-23T07:18:42.047Z,125.93
2018-11-23T07:21:21.381Z,126.57
2018-11-23T07:23:47.915Z,132.97
2018-11-23T07:26:19.700Z,125.00
2018-11-23T07:28:49.519Z,136.67
2018-11-23T07:31:19.058Z,132.87
2018-11-23T07:33:48.175Z,144.20
2018-11-23T07:36:17.305Z,152.87
2018-11-23T07:38:46.232Z,141.17
2018-11-23T07:41:26.108Z,141.10
2018-11-23T07:43:55.135Z,146.10
2018-11-23T07:46:25.939Z,128.50
2018-11-23T07:48:57.709Z,129.87
2018-11-23T07:51:26.929Z,142.40
2018-11-23T07:53:56.128Z,132.90
2018-11-23T07:56:24.808Z,135.63
2018-11-23T07:58:53.991Z,130.73
2018-11-23T08:01:24.322Z,136.83
2018-11-23T08:03:53.582Z,135.27
2018-11-23T08:06:22.418Z,123.90
2018-11-23T08:08:51.283Z,138.30
2018-11-23T08:11:21.441Z,123.13
2018-11-23T08:13:51.867Z,143.37
2018-11-23T08:16:21.498Z,129.07
2018-11-23T08:18:56.798Z,132.30
2018-11-23T08:21:26.797Z,124.23
2018-11-23T08:23:57.426Z,128.93
2018-11-23T08:26:26.204Z,136.20
2018-11-23T08:28:55.780Z,131.07
2018-11-23T08:31:24.846Z,135.57
2018-11-23T08:33:54.415Z,114.40
2018-11-23T08:36:23.828Z,129.77
2018-11-23T08:38:54.257Z,130.83
2018-11-23T08:41:23.972Z,125.27
2018-11-23T08:43:53.605Z,131.57
2018-11-23T08:46:28.840Z,139.17
2018-11-23T08:49:06.342Z,127.47
2018-11-23T08:51:35.401Z,131.63
2018-11-23T08:54:04.322Z,139.47
2018-11-23T08:56:34.291Z,120.53
2018-11-23T08:59:11.058Z,111.57
2018-11-23T09:01:40.016Z,116.43
2018-11-23T09:04:10.063Z,111.03
2018-11-23T09:06:39.753Z,114.17
2018-11-23T09:09:11.973Z,116.77
2018-11-23T09:11:41.682Z,110.03
2018-11-23T09:14:13.188Z,105.40
2018-11-23T09:16:43.627Z,107.30
2018-11-23T09:19:13.498Z,115.83
2018-11-23T09:21:44.400Z,105.53
2018-11-23T09:24:13.641Z,111.43
2018-11-23T09:26:46.910Z,109.90
2018-11-23T09:29:22.163Z,103.93
2018-11-23T09:31:51.447Z,109.33
2018-11-23T09:34:20.906Z,113.67
2018-11-23T09:36:51.927Z,98.27
2018-11-23T09:39:24.922Z,111.40
2018-11-23T09:41:54.715Z,105.90
2018-11-23T09:44:25.277Z,105.97
2018-11-23T09:46:56.144Z,100.20
2018-11-23T09:49:24.810Z,108.10
2018-11-23T09:51:55.176Z,104.60
2018-11-23T09:54:26.969Z,107.77
2018-11-23T09:57:00.360Z,114.63
2018-11-23T09:59:29.926Z,106.87
2018-11-23T10:02:00.299Z,112.10
2018-11-23T10:04:31.694Z,106.57
2018-11-23T10:07:04.622Z,106.23
2018-11-23T10:09:37.766Z,209.63
2018-11-23T10:12:08.392Z,103.20
2018-11-23T10:14:39.966Z,95.50
2018-11-23T10:17:10.623Z,98.90
2018-11-23T10:19:42.704Z,89.03
2018-11-23T10:22:14.636Z,96.37
2018-11-23T10:24:44.512Z,105.20
2018-11-23T10:27:14.548Z,90.97
2018-11-23T10:29:44.717Z,94.80
2018-11-23T10:32:16.498Z,88.40
2018-11-23T10:34:56.349Z,97.87
2018-11-23T10:37:29.287Z,87.13
2018-11-23T10:42:37.759Z,96.43
2018-11-23T10:47:52.531Z,84.03
2018-11-23T10:50:24.241Z,82.10
2018-11-23T10:53:02.162Z,93.40
2018-11-23T10:55:40.862Z,91.60
2018-11-23T10:58:11.040Z,91.27
2018-11-23T11:01:55.070Z,93.23
2018-11-23T11:04:29.233Z,95.57
2018-11-23T11:07:08.934Z,90.47
2018-11-23T11:09:38.568Z,102.60
2018-11-23T11:12:09.597Z,95.53
2018-11-23T11:14:44.277Z,82.47
2018-11-23T11:17:21.150Z,78.23
2018-11-23T11:19:55.171Z,89.40
2018-11-23T11:22:25.472Z,88.70
2018-11-23T11:25:01.295Z,89.97
2018-11-23T11:31:10.096Z,89.03
2018-11-23T11:33:40.653Z,84.20
2018-11-23T11:36:11.558Z,85.37
2018-11-23T11:38:42.762Z,76.07
2018-11-23T11:41:19.817Z,83.73
2018-11-23T11:43:57.815Z,76.07
2018-11-23T11:46:36.493Z,77.03
2018-11-23T11:49:14.950Z,81.63
2018-11-23T11:51:51.906Z,76.33
2018-11-23T11:54:24.451Z,73.30
2018-11-23T11:56:57.772Z,77.50
2018-11-23T11:59:28.412Z,80.90
2018-11-23T12:02:03.136Z,81.23
2018-11-23T12:04:35.647Z,84.77
2018-11-23T12:07:07.744Z,79.67
2018-11-23T12:09:45.289Z,78.47
2018-11-23T12:12:23.190Z,78.60
2018-11-23T12:14:56.329Z,77.40
2018-11-23T12:17:33.042Z,79.33
2018-11-23T12:20:10.931Z,79.00
2018-11-23T12:22:43.224Z,79.30
2018-11-23T12:25:13.671Z,83.90
2018-11-23T12:27:54.278Z,81.33
2018-11-23T12:30:27.516Z,90.67
2018-11-23T12:33:08.022Z,80.23
2018-11-23T12:35:48.847Z,82.73
2018-11-23T12:38:26.641Z,87.80
2018-11-23T12:40:57.732Z,96.70
2018-11-23T12:43:28.114Z,98.43
2018-11-23T12:45:59.873Z,87.33
2018-11-23T12:48:36.528Z,94.90
2018-11-23T12:51:14.326Z,89.37
2018-11-23T12:53:44.688Z,96.63
2018-11-23T12:56:15.793Z,106.60
2018-11-23T12:58:50.977Z,97.07
2018-11-23T13:01:24.084Z,102.00
2018-11-23T13:03:54.342Z,96.83
2018-11-23T13:06:28.659Z,97.90
2018-11-23T13:08:58.137Z,98.50
2018-11-23T13:11:29.293Z,95.30
2018-11-23T13:13:58.405Z,120.53
2018-11-23T13:16:33.120Z,97.83
2018-11-23T13:19:02.459Z,103.90
2018-11-23T13:21:34.398Z,112.07
2018-11-23T13:24:06.279Z,104.03
2018-11-23T13:26:35.694Z,111.73
2018-11-23T13:29:16.045Z,99.07
2018-11-23T13:31:45.917Z,111.53
2018-11-23T13:34:14.980Z,112.20
2018-11-23T13:36:48.062Z,114.97
2018-11-23T13:39:26.082Z,111.57
2018-11-23T13:41:57.921Z,131.10
2018-11-23T13:44:30.193Z,119.60
2018-11-23T13:47:13.906Z,119.37
2018-11-23T13:49:46.981Z,114.27
2018-11-23T13:52:25.407Z,125.40
2018-11-23T13:54:59.257Z,126.37
2018-11-23T13:57:31.889Z,121.33
2018-11-23T14:00:03.827Z,114.97
2018-11-23T14:02:37.299Z,119.33
2018-11-23T14:05:11.525Z,113.77
2018-11-23T14:07:40.696Z,113.23
2018-11-23T14:10:14.743Z,113.70
2018-11-23T14:12:51.176Z,139.13
2018-11-23T14:15:25.850Z,115.47
2018-11-23T14:18:02.903Z,129.60
2018-11-23T14:20:36.740Z,118.90
2018-11-23T14:23:10.377Z,120.93
2018-11-23T14:25:42.176Z,124.60
2018-11-23T14:28:13.759Z,118.80
2018-11-23T14:30:54.611Z,116.90
2018-11-23T14:33:25.359Z,120.73
2018-11-23T14:35:57.489Z,117.97
2018-11-23T14:38:30.295Z,133.67
2018-11-23T14:41:10.256Z,129.87
2018-11-23T14:43:40.534Z,138.47
2018-11-23T14:46:10.132Z,141.63
2018-11-23T14:48:40.232Z,118.63
2018-11-23T14:51:10.543Z,123.57
2018-11-23T14:53:44.298Z,115.50
2018-11-23T14:56:15.646Z,128.67
2018-11-23T14:58:45.620Z,138.00
2018-11-23T15:01:20.946Z,126.00
2018-11-23T15:03:56.050Z,125.80
2018-11-23T15:06:25.308Z,116.10
2018-11-23T15:08:54.755Z,136.97
2018-11-23T15:11:27.525Z,131.60
2018-11-23T15:14:00.448Z,117.33
2018-11-23T15:16:36.011Z,146.60
2018-11-23T15:19:08.464Z,134.63
2018-11-23T15:21:40.778Z,128.77
2018-11-23T15:24:10.339Z,134.47
2018-11-23T15:26:41.449Z,123.37
2018-11-23T15:29:13.217Z,132.37
2018-11-23T15:31:49.975Z,140.80
2018-11-23T15:34:20.293Z,142.73
2018-11-23T15:36:52.438Z,144.10
2018-11-23T15:39:23.422Z,123.80
2018-11-23T15:41:54.529Z,125.43
2018-11-23T15:44:27.608Z,124.27
2018-11-23T15:46:57.657Z,118.20
2018-11-23T15:49:27.430Z,134.60
2018-11-23T15:51:59.281Z,149.83
2018-11-23T15:54:32.129Z,129.20
2018-11-23T15:57:02.642Z,144.27
2018-11-23T15:59:34.088Z,140.13
2018-11-23T16:02:05.343Z,148.43
2018-11-23T16:04:40.269Z,136.60
2018-11-23T16:07:09.776Z,139.87
2018-11-23T16:09:45.261Z,136.30
2018-11-23T16:12:17.691Z,150.80
2018-11-23T16:14:51.179Z,137.93
2018-11-23T16:17:24.514Z,145.73
2018-11-23T16:19:58.447Z,155.20
2018-11-23T16:22:28.959Z,136.87
2018-11-23T16:24:59.848Z,145.73
2018-11-23T16:27:31.381Z,129.90
2018-11-23T16:30:02.613Z,149.50
2018-11-23T16:32:33.694Z,142.90
2018-11-23T16:35:09.127Z,144.57
2018-11-23T16:37:51.475Z,138.13
2018-11-23T16:40:26.624Z,148.40
2018-11-23T16:43:01.891Z,138.93
2018-11-23T16:45:34.040Z,132.07
2018-11-23T16:48:08.765Z,126.60
2018-11-23T16:50:38.862Z,160.57
2018-11-23T16:53:08.707Z,148.67
2018-11-23T16:55:41.935Z,143.17
2018-11-23T16:58:13.290Z,153.80
2018-11-23T17:00:48.877Z,147.17
2018-11-23T17:03:21.861Z,143.03
2018-11-23T17:05:54.589Z,140.50
2018-11-23T17:08:27.370Z,141.33
2018-11-23T17:11:03.077Z,140.60
2018-11-23T17:13:32.405Z,152.07
2018-11-23T17:16:02.893Z,135.60
2018-11-23T17:18:37.183Z,147.40
2018-11-23T17:21:09.682Z,140.27
2018-11-23T17:23:42.738Z,148.10
2018-11-23T17:26:15.586Z,162.07
2018-11-23T17:28:45.390Z,149.93
2018-11-23T17:31:15.496Z,156.83
2018-11-23T17:33:47.012Z,156.13
2018-11-23T17:36:19.667Z,147.83
2018-11-23T17:38:52.657Z,147.80
2018-11-23T17:41:26.941Z,162.87
2018-11-23T17:44:05.562Z,152.80
2018-11-23T17:46:38.950Z,152.83
2018-11-23T17:49:12.002Z,141.87
2018-11-23T17:51:43.595Z,149.83
2018-11-23T17:54:16.698Z,138.43
2018-11-23T17:56:55.025Z,138.83
2018-11-23T17:59:25.213Z,138.77
2018-11-23T18:01:55.366Z,126.43
2018-11-23T18:04:29.803Z,137.10
2018-11-23T18:07:10.827Z,138.97
2018-11-23T18:09:52.723Z,137.53
2018-11-23T18:12:29.763Z,144.73
2018-11-23T18:15:04.518Z,128.93
2018-11-23T18:17:41.019Z,142.33
2018-11-23T18:20:14.213Z,134.90
2018-11-23T18:22:51.728Z,146.10
2018-11-23T18:25:44.595Z,136.30
2018-11-23T18:28:21.803Z,131.90
2018-11-23T18:31:02.532Z,133.83
2018-11-23T18:33:39.712Z,142.20
2018-11-23T18:36:17.161Z,143.50
2018-11-23T18:38:48.366Z,135.97
2018-11-23T18:41:26.619Z,126.90
2018-11-23T18:43:57.814Z,134.43
2018-11-23T18:46:27.731Z,124.47
2018-11-23T18:49:02.073Z,131.13
2018-11-23T18:51:32.745Z,128.83
2018-11-23T18:54:02.902Z,126.73
2018-11-23T18:56:40.431Z,118.40
2018-11-23T19:01:56.698Z,103.00
2018-11-23T19:04:38.628Z,128.67
2018-11-23T19:07:15.367Z,122.87
2018-11-23T19:09:52.484Z,108.10
2018-11-23T19:12:25.411Z,124.57
2018-11-23T19:14:54.820Z,107.43
2018-11-23T19:17:28.454Z,114.47
2018-11-23T19:20:04.686Z,104.90
2018-11-23T19:22:36.700Z,107.77
2018-11-23T19:25:16.215Z,106.03
2018-11-23T19:27:55.398Z,122.17
2018-11-23T19:30:30.781Z,111.73
2018-11-23T19:33:03.549Z,109.87
2018-11-23T19:35:40.738Z,108.67
2018-11-23T19:38:10.059Z,118.30
2018-11-23T19:40:44.423Z,118.03
2018-11-23T19:43:16.420Z,125.80
2018-11-23T19:45:48.467Z,121.13
2018-11-23T19:48:23.605Z,121.07
2018-11-23T19:51:07.028Z,106.47
2018-11-23T19:53:41.506Z,123.13
2018-11-23T19:56:11.372Z,120.20
2018-11-23T19:58:43.899Z,123.40
2018-11-23T20:01:17.143Z,134.87
2018-11-23T20:04:01.606Z,131.23
2018-11-23T20:06:32.098Z,135.03
2018-11-23T20:09:07.561Z,122.40
2018-11-23T20:11:41.014Z,129.17
2018-11-23T20:14:12.733Z,123.97
2018-11-23T20:19:39.656Z,121.83
2018-11-23T20:22:16.436Z,119.67
2018-11-23T20:24:47.520Z,134.03
2018-11-23T20:27:32.602Z,133.07
2018-11-23T20:30:19.494Z,132.20
2018-11-23T20:32:53.525Z,131.60
2018-11-23T20:35:31.783Z,125.40
2018-11-23T20:38:13.689Z,131.97
2018-11-23T20:40:49.715Z,136.50
2018-11-23T20:43:39.197Z,130.43
2018-11-23T20:46:11.363Z,136.23
2018-11-23T20:48:42.950Z,120.43
2018-11-23T20:51:18.064Z,149.67
2018-11-23T20:53:53.629Z,126.73
2018-11-23T20:56:30.198Z,138.47
2018-11-23T20:59:06.327Z,132.60
2018-11-23T21:01:38.331Z,133.93
2018-11-23T21:04:10.970Z,130.43
2018-11-23T21:06:42.883Z,134.70
2018-11-23T21:09:14.307Z,140.47
2018-11-23T21:12:09.647Z,125.00
2018-11-23T21:14:44.041Z,134.83
2018-11-23T21:17:46.119Z,115.47
2018-11-23T21:20:22.884Z,143.03
2018-11-23T21:22:55.433Z,139.83
2018-11-23T21:25:35.181Z,128.23
2018-11-23T21:28:07.694Z,149.13
2018-11-23T21:30:51.229Z,143.10
2018-11-23T21:33:23.062Z,151.83
2018-11-23T21:35:56.672Z,140.60
2018-11-23T21:38:28.565Z,149.47
2018-11-23T21:41:02.691Z,150.40
2018-11-23T21:43:34.551Z,149.67
2018-11-23T21:46:10.733Z,144.03
2018-11-23T21:48:40.492Z,147.90
2018-11-23T21:51:13.663Z,163.87
2018-11-23T21:53:45.779Z,161.27
2018-11-23T21:56:20.023Z,154.00
2018-11-23T21:58:50.892Z,148.00
2018-11-23T22:01:21.270Z,156.77
2018-11-23T22:03:54.463Z,165.67
2018-11-23T22:06:25.184Z,150.80
2018-11-23T22:08:55.353Z,159.97
2018-11-23T22:11:29.773Z,150.37
2018-11-23T22:14:03.877Z,152.37
2018-11-23T22:16:35.281Z,160.90
2018-11-23T22:19:06.797Z,165.03
2018-11-23T22:21:39.940Z,162.53
2018-11-23T22:24:12.216Z,158.37
2018-11-23T22:29:23.899Z,144.10
2018-11-23T22:31:56.086Z,160.87
2018-11-23T22:34:26.620Z,159.90
2018-11-23T22:36:57.231Z,174.83
2018-11-23T22:39:27.823Z,151.97
2018-11-23T22:41:59.001Z,150.60
2018-11-23T22:44:29.424Z,152.33
2018-11-23T22:47:00.266Z,149.10
2018-11-23T22:49:31.489Z,137.70
2018-11-23T22:52:04.027Z,148.77
2018-11-23T22:54:36.583Z,147.17
2018-11-23T22:57:11.737Z,134.97
2018-11-23T22:59:43.420Z,146.33
2018-11-23T23:02:20.357Z,147.90
2018-11-23T23:04:51.492Z,145.73
2018-11-23T23:07:21.023Z,157.30
2018-11-23T23:09:51.910Z,157.53
2018-11-23T23:12:21.760Z,145.37
2018-11-23T23:14:52.393Z,155.67
2018-11-23T23:17:25.220Z,139.37
2018-11-23T23:19:59.006Z,150.50
2018-11-23T23:22:29.415Z,142.40
2018-11-23T23:24:59.187Z,144.87
2018-11-23T23:27:29.407Z,136.40
2018-11-23T23:29:59.364Z,130.57
2018-11-23T23:32:28.798Z,129.70
2018-11-23T23:34:58.237Z,121.00
2018-11-23T23:37:28.272Z,118.00
2018-11-23T23:39:58.217Z,118.87
2018-11-23T23:42:27.801Z,137.23
2018-11-23T23:44:57.565Z,169.53
2018-11-23T23:47:27.153Z,135.13
2018-11-23T23:49:56.350Z,132.00
2018-11-23T23:52:26.240Z,126.47
2018-11-23T23:54:55.166Z,143.03
2018-11-23T23:57:26.705Z,138.43
2018-11-23T23:59:55.236Z,176.80
